createdAt,value
2023-04-07T00:00:42.949Z,99463.75
2023-04-07T00:03:13.241Z,99468.78
2023-04-07T00:05:42.360Z,99467.06
2023-04-07T00:08:11.225Z,99468.84
2023-04-07T00:10:40.628Z,99453.63
2023-04-07T00:13:10.828Z,99467.13
2023-04-07T00:15:39.689Z,99467.13
2023-04-07T00:18:08.586Z,99463.81
2023-04-07T00:20:38.623Z,99458.81
2023-04-07T00:23:07.500Z,99459.66
2023-04-07T00:25:36.369Z,99460.53
2023-04-07T00:28:28.118Z,99450.44
2023-04-07T00:30:56.976Z,99452.13
2023-04-07T00:33:26.213Z,99457.19
2023-04-07T00:35:58.114Z,99450.50
2023-04-07T00:38:27.034Z,99441.09
2023-04-07T00:40:59.571Z,99441.28
2023-04-07T00:43:29.885Z,99437.88
2023-04-07T00:45:58.771Z,99434.47
2023-04-07T00:48:27.633Z,99442.03
2023-04-07T00:50:56.590Z,99425.88
2023-04-07T00:53:25.800Z,99430.22
2023-04-07T00:55:54.726Z,99421.84
2023-04-07T00:58:23.597Z,99420.22
2023-04-07T01:01:01.716Z,99427.84
2023-04-07T01:03:34.391Z,99425.25
2023-04-07T01:06:04.544Z,99418.53
2023-04-07T01:08:43.890Z,99421.97
2023-04-07T01:11:19.604Z,99425.44
2023-04-07T01:13:52.991Z,99413.59
2023-04-07T01:16:42.886Z,99421.16
2023-04-07T01:19:25.180Z,99413.59
2023-04-07T01:22:01.922Z,99410.28
2023-04-07T01:24:56.602Z,99408.44
2023-04-07T01:27:36.624Z,99413.44
2023-04-07T01:30:12.127Z,99409.22
2023-04-07T01:32:43.670Z,99413.50
2023-04-07T01:35:14.797Z,99405.03
2023-04-07T01:37:46.824Z,99410.09
2023-04-07T01:40:16.975Z,99403.41
2023-04-07T01:42:47.569Z,99400.88
2023-04-07T01:45:18.512Z,99399.13
2023-04-07T01:47:48.770Z,99403.41
2023-04-07T01:50:18.389Z,99396.63
2023-04-07T01:52:47.547Z,99391.59
2023-04-07T01:55:16.672Z,99400.06
2023-04-07T01:58:11.231Z,99385.72
2023-04-07T02:00:45.469Z,99391.59
2023-04-07T02:03:24.642Z,99394.09
2023-04-07T02:05:57.282Z,99383.97
2023-04-07T02:08:32.377Z,99385.63
2023-04-07T02:11:05.811Z,99383.13
2023-04-07T02:13:40.616Z,99382.31
2023-04-07T02:16:16.093Z,99382.97
2023-04-07T02:18:46.870Z,99384.72
2023-04-07T02:21:18.027Z,99384.72
2023-04-07T02:23:48.975Z,99385.47
2023-04-07T02:26:18.261Z,99387.13
2023-04-07T02:28:46.992Z,99387.06
2023-04-07T02:31:17.192Z,99376.06
2023-04-07T02:33:48.957Z,99377.72
2023-04-07T02:36:18.016Z,99380.19
2023-04-07T02:38:46.792Z,99387.66
2023-04-07T02:41:16.170Z,99382.59
2023-04-07T02:43:44.876Z,99383.38
2023-04-07T02:46:15.478Z,99378.25
2023-04-07T02:48:47.248Z,99383.25
2023-04-07T02:51:16.055Z,99384.00
2023-04-07T02:53:44.833Z,99374.69
2023-04-07T02:56:14.484Z,99377.97
2023-04-07T02:58:43.364Z,99376.16
2023-04-07T03:01:12.517Z,99381.13
2023-04-07T03:03:42.790Z,99373.53
2023-04-07T03:06:20.374Z,99358.25
2023-04-07T03:09:05.673Z,99362.50
2023-04-07T03:11:36.079Z,99363.28
2023-04-07T03:14:05.390Z,99367.56
2023-04-07T03:16:35.627Z,99365.00
2023-04-07T03:19:09.720Z,99368.41
2023-04-07T03:21:44.435Z,99365.97
2023-04-07T03:24:13.606Z,99365.09
2023-04-07T03:26:42.333Z,99356.69
2023-04-07T03:29:20.882Z,99363.56
2023-04-07T03:31:50.149Z,99356.94
2023-04-07T03:34:22.811Z,99361.19
2023-04-07T03:36:53.035Z,99346.78
2023-04-07T03:39:21.776Z,99356.13
2023-04-07T03:41:52.275Z,99357.81
2023-04-07T03:44:21.339Z,99357.88
2023-04-07T03:46:50.976Z,99352.03
2023-04-07T03:49:21.426Z,99358.78
2023-04-07T03:51:53.000Z,99357.09
2023-04-07T03:54:22.805Z,99357.91
2023-04-07T03:56:51.724Z,99357.19
2023-04-07T03:59:24.998Z,99351.28
2023-04-07T04:02:00.293Z,99357.28
2023-04-07T04:04:30.777Z,99355.56
2023-04-07T04:07:04.870Z,99368.94
2023-04-07T04:09:44.722Z,99365.47
2023-04-07T04:12:14.762Z,99365.53
2023-04-07T04:14:58.267Z,99365.56
2023-04-07T04:17:27.208Z,99370.63
2023-04-07T04:19:56.465Z,99373.19
2023-04-07T04:22:35.229Z,99372.34
2023-04-07T04:25:04.271Z,99374.00
2023-04-07T04:27:33.507Z,99372.34
2023-04-07T04:30:11.621Z,99355.28
2023-04-07T04:32:47.280Z,99374.97
2023-04-07T04:35:18.476Z,99375.88
2023-04-07T04:38:01.517Z,99386.84
2023-04-07T04:40:30.289Z,99388.56
2023-04-07T04:42:59.260Z,99386.03
2023-04-07T04:45:28.884Z,99382.63
2023-04-07T04:47:57.635Z,99373.38
2023-04-07T04:50:26.548Z,99389.38
2023-04-07T04:52:56.151Z,99382.63
2023-04-07T04:55:27.735Z,99387.63
2023-04-07T04:57:57.088Z,99387.66
2023-04-07T05:00:35.929Z,99398.63
2023-04-07T05:03:09.084Z,99385.97
2023-04-07T05:05:42.096Z,99384.28
2023-04-07T05:08:12.684Z,99388.56
2023-04-07T05:10:45.654Z,99381.91
2023-04-07T05:13:18.547Z,99377.66
2023-04-07T05:15:49.013Z,99370.22
2023-04-07T05:18:17.949Z,99367.69
2023-04-07T05:20:47.445Z,99369.38
2023-04-07T05:23:16.686Z,99375.31
2023-04-07T05:25:49.971Z,99381.31
2023-04-07T05:28:20.416Z,99383.88
2023-04-07T05:30:50.736Z,99388.09
2023-04-07T05:33:21.266Z,99375.44
2023-04-07T05:35:54.454Z,99384.72
2023-04-07T05:38:23.731Z,99387.31
2023-04-07T05:40:56.327Z,99394.19
2023-04-07T05:43:33.843Z,99392.63
2023-04-07T05:46:03.092Z,99392.66
2023-04-07T05:48:32.731Z,99402.88
2023-04-07T05:51:01.830Z,99403.72
2023-04-07T05:53:30.630Z,99402.06
2023-04-07T05:56:01.588Z,99402.84
2023-04-07T05:58:41.465Z,99404.50
2023-04-07T06:01:11.931Z,99394.31
2023-04-07T06:03:41.357Z,99401.91
2023-04-07T06:06:17.756Z,99393.53
2023-04-07T06:08:48.090Z,99390.22
2023-04-07T06:11:18.551Z,99383.31
2023-04-07T06:13:47.441Z,99391.66
2023-04-07T06:16:17.466Z,99396.84
2023-04-07T06:18:47.795Z,99392.72
2023-04-07T06:21:16.743Z,99396.94
2023-04-07T06:23:45.947Z,99387.63
2023-04-07T06:26:14.999Z,99385.00
2023-04-07T06:28:45.212Z,99389.19
2023-04-07T06:31:15.006Z,99386.66
2023-04-07T06:33:43.518Z,99385.78
2023-04-07T06:36:12.528Z,99388.34
2023-04-07T06:38:41.503Z,99388.34
2023-04-07T06:41:13.401Z,99388.25
2023-04-07T06:43:42.416Z,99390.84
2023-04-07T06:46:12.685Z,99390.84
2023-04-07T06:48:41.919Z,99400.16
2023-04-07T06:51:10.757Z,99403.41
2023-04-07T06:53:40.358Z,99400.72
2023-04-07T06:56:11.008Z,99404.91
2023-04-07T06:58:40.148Z,99408.19
2023-04-07T07:01:08.795Z,99410.03
2023-04-07T07:03:39.530Z,99417.59
2023-04-07T07:06:08.717Z,99417.63
2023-04-07T07:08:37.355Z,99421.16
2023-04-07T07:11:06.365Z,99415.41
2023-04-07T07:13:35.355Z,99413.84
2023-04-07T07:16:06.650Z,99420.78
2023-04-07T07:18:41.590Z,99419.28
2023-04-07T07:21:11.091Z,99424.44
2023-04-07T07:23:40.829Z,99427.00
2023-04-07T07:26:10.114Z,99427.91
2023-04-07T07:28:39.186Z,99418.72
2023-04-07T07:31:13.399Z,99433.91
2023-04-07T07:33:46.617Z,99433.13
2023-04-07T07:36:15.628Z,99428.13
2023-04-07T07:38:44.265Z,99436.56
2023-04-07T07:41:13.449Z,99419.59
2023-04-07T07:43:42.181Z,99435.78
2023-04-07T07:46:11.076Z,99432.59
2023-04-07T07:48:39.742Z,99431.00
2023-04-07T07:51:09.987Z,99435.34
2023-04-07T07:53:38.913Z,99438.81
2023-04-07T07:56:07.503Z,99440.63
2023-04-07T07:58:36.246Z,99431.47
2023-04-07T08:01:04.909Z,99442.63
2023-04-07T08:03:33.768Z,99439.38
2023-04-07T08:06:03.333Z,99441.91
2023-04-07T08:08:33.535Z,99449.69
2023-04-07T08:11:03.209Z,99449.88
2023-04-07T08:13:31.980Z,99445.75
2023-04-07T08:16:01.156Z,99444.94
2023-04-07T08:18:29.805Z,99451.91
2023-04-07T08:20:58.907Z,99444.41
2023-04-07T08:23:27.650Z,99451.19
2023-04-07T08:25:57.721Z,99446.19
2023-04-07T08:28:28.335Z,99445.44
2023-04-07T08:30:57.057Z,99444.75
2023-04-07T08:33:25.921Z,99453.25
2023-04-07T08:35:54.841Z,99448.25
2023-04-07T08:38:23.611Z,99450.22
2023-04-07T08:41:01.978Z,99438.78
2023-04-07T08:43:30.948Z,99443.19
2023-04-07T08:45:59.890Z,99445.91
2023-04-07T08:48:34.174Z,99449.28
2023-04-07T08:51:08.630Z,99443.50
2023-04-07T08:53:44.737Z,99447.94
2023-04-07T09:35:56.378Z,99445.38
2023-04-07T09:38:35.186Z,99450.41
2023-04-07T09:41:11.725Z,99444.50
2023-04-07T09:43:41.856Z,99438.78
2023-04-07T09:46:13.300Z,99447.25
2023-04-07T09:48:42.799Z,99442.25
2023-04-07T09:51:14.708Z,99442.28
2023-04-07T09:53:45.374Z,99430.50
2023-04-07T09:56:16.447Z,99439.78
2023-04-07T09:58:47.459Z,99444.84
2023-04-07T10:01:18.371Z,99441.56
2023-04-07T10:03:48.625Z,99444.13
2023-04-07T10:06:19.651Z,99442.38
2023-04-07T10:08:48.649Z,99437.44
2023-04-07T10:11:18.209Z,99430.78
2023-04-07T10:13:47.653Z,99425.72
2023-04-07T10:16:17.373Z,99419.78
2023-04-07T10:18:46.573Z,99424.91
2023-04-07T10:21:19.886Z,99423.19
2023-04-07T10:23:58.157Z,99419.81
2023-04-07T10:26:31.929Z,99417.25
2023-04-07T10:29:07.491Z,99420.66
2023-04-07T10:31:38.866Z,99414.72
2023-04-07T10:34:07.746Z,99416.38
2023-04-07T10:36:39.038Z,99410.44
2023-04-07T10:39:25.135Z,99415.53
2023-04-07T10:41:54.181Z,99422.34
2023-04-07T10:44:44.712Z,99418.09
2023-04-07T10:47:14.524Z,99421.47
2023-04-07T10:50:02.989Z,99425.69
2023-04-07T10:52:33.583Z,99429.09
2023-04-07T10:55:24.016Z,99418.88
2023-04-07T10:58:18.405Z,99392.53
2023-04-07T11:01:12.976Z,99412.81
2023-04-07T11:03:43.553Z,99414.47
2023-04-07T11:06:14.267Z,99414.41
2023-04-07T11:08:48.993Z,99418.69
2023-04-07T11:11:22.873Z,99404.38
2023-04-07T11:13:52.872Z,99403.56
2023-04-07T11:16:22.183Z,99391.63
2023-04-07T11:18:51.072Z,99393.16
2023-04-07T11:21:20.736Z,99396.56
2023-04-07T11:23:51.342Z,99397.25
2023-04-07T11:26:20.395Z,99390.34
2023-04-07T11:28:51.897Z,99393.63
2023-04-07T11:31:25.140Z,99394.72
2023-04-07T11:33:56.394Z,99398.22
2023-04-07T11:36:29.874Z,99394.94
2023-04-07T11:39:02.499Z,99406.88
2023-04-07T11:41:34.009Z,99403.56
2023-04-07T11:44:10.896Z,99405.25
2023-04-07T11:46:55.221Z,99403.59
2023-04-07T11:49:25.176Z,99403.59
2023-04-07T11:51:59.909Z,99367.16
2023-04-07T11:54:40.739Z,99407.84
2023-04-07T11:57:12.288Z,99400.19
2023-04-07T11:59:41.615Z,99410.38
2023-04-07T12:02:10.606Z,99408.63
2023-04-07T12:04:41.191Z,99409.50
2023-04-07T12:07:12.753Z,99398.41
2023-04-07T12:09:43.059Z,99387.34
2023-04-07T12:12:11.856Z,99393.28
2023-04-07T12:14:40.506Z,99406.09
2023-04-07T12:17:09.653Z,99403.56
2023-04-07T12:19:39.878Z,99395.91
2023-04-07T12:22:09.096Z,99396.78
2023-04-07T12:24:37.840Z,99395.94
2023-04-07T12:27:08.587Z,99391.75
2023-04-07T12:29:37.809Z,99386.59
2023-04-07T12:32:06.607Z,99394.25
2023-04-07T12:34:38.286Z,99398.44
2023-04-07T12:37:07.424Z,99390.78
2023-04-07T12:39:36.137Z,99385.63
2023-04-07T12:42:05.382Z,99394.94
2023-04-07T12:44:35.822Z,99389.88
2023-04-07T12:47:04.604Z,99387.34
2023-04-07T12:49:33.334Z,99393.38
2023-04-07T12:52:02.306Z,99391.75
2023-04-07T12:54:31.065Z,99389.19
2023-04-07T12:57:00.166Z,99394.31
2023-04-07T12:59:28.925Z,99400.25
2023-04-07T13:01:59.668Z,99401.97
2023-04-07T13:04:30.727Z,99398.53
2023-04-07T13:07:01.367Z,99396.84
2023-04-07T13:09:30.331Z,99401.94
2023-04-07T13:11:59.260Z,99404.50
2023-04-07T13:14:28.166Z,99412.13
2023-04-07T13:16:58.457Z,99399.38
2023-04-07T13:19:27.354Z,99401.91
2023-04-07T13:21:56.861Z,99394.25
2023-04-07T13:24:28.236Z,99400.19
2023-04-07T13:26:58.096Z,99396.81
2023-04-07T13:29:27.583Z,99396.81
2023-04-07T13:32:08.284Z,99398.50
2023-04-07T13:34:38.119Z,99393.38
2023-04-07T13:37:06.730Z,99387.44
2023-04-07T13:39:35.511Z,99385.72
2023-04-07T13:42:04.898Z,99384.03
2023-04-07T13:44:33.988Z,99381.47
2023-04-07T13:47:03.459Z,99379.78
2023-04-07T13:49:33.844Z,99379.78
2023-04-07T13:52:02.746Z,99375.53
2023-04-07T13:54:31.480Z,99379.81
2023-04-07T13:57:00.534Z,99377.22
2023-04-07T13:59:29.332Z,99379.78
2023-04-07T14:01:58.383Z,99390.81
2023-04-07T14:04:27.547Z,99386.66
2023-04-07T14:06:58.129Z,99380.69
2023-04-07T14:09:26.932Z,99381.53
2023-04-07T14:11:55.671Z,99385.81
2023-04-07T14:14:24.497Z,99384.13
2023-04-07T14:16:53.434Z,99390.06
2023-04-07T14:19:23.641Z,99385.81
2023-04-07T14:21:52.954Z,99382.44
2023-04-07T14:24:23.176Z,99387.53
2023-04-07T14:26:54.857Z,99388.41
2023-04-07T14:29:24.064Z,99385.00
2023-04-07T14:31:52.899Z,99386.69
2023-04-07T14:34:23.487Z,99389.25
2023-04-07T14:36:56.233Z,99389.25
2023-04-07T14:39:26.639Z,99386.69
2023-04-07T14:41:55.394Z,99393.50
2023-04-07T14:44:24.194Z,99393.50
2023-04-07T14:46:54.312Z,99393.50
2023-04-07T14:49:23.543Z,99396.03
2023-04-07T14:51:52.240Z,99393.50
2023-04-07T14:54:21.897Z,99394.34
2023-04-07T14:56:51.991Z,99391.81
2023-04-07T14:59:20.967Z,99394.31
2023-04-07T15:01:49.756Z,99403.66
2023-04-07T15:04:18.717Z,99390.09
2023-04-07T15:06:47.708Z,99399.41
2023-04-07T15:09:16.552Z,99401.97
2023-04-07T15:11:46.315Z,99396.03
2023-04-07T15:14:16.552Z,99389.25
2023-04-07T15:16:47.702Z,99403.66
2023-04-07T15:19:16.581Z,99400.25
2023-04-07T15:21:45.279Z,99408.75
2023-04-07T15:24:16.040Z,99407.06
2023-04-07T15:26:45.653Z,99405.38
2023-04-07T15:29:15.762Z,99402.81
2023-04-07T15:31:44.595Z,99403.66
2023-04-07T15:34:14.368Z,99407.06
2023-04-07T15:36:43.198Z,99408.72
2023-04-07T15:39:11.911Z,99404.47
2023-04-07T15:41:40.780Z,99408.69
2023-04-07T15:44:09.500Z,99408.69
2023-04-07T15:46:39.757Z,99412.06
2023-04-07T15:49:08.559Z,99420.53
2023-04-07T15:51:37.336Z,99412.06
2023-04-07T15:54:06.129Z,99423.06
2023-04-07T15:56:35.738Z,99430.66
2023-04-07T15:59:04.539Z,99432.22
2023-04-07T16:01:34.018Z,99440.66
2023-04-07T16:04:04.354Z,99445.66
2023-04-07T16:06:33.217Z,99446.53
2023-04-07T16:09:01.935Z,99446.53
2023-04-07T16:11:30.866Z,99443.09
2023-04-07T16:13:59.535Z,99449.00
2023-04-07T16:16:28.342Z,99443.88
2023-04-07T16:18:57.128Z,99445.53
2023-04-07T16:21:27.571Z,99447.97
2023-04-07T16:23:56.400Z,99448.78
2023-04-07T16:26:25.238Z,99457.22
2023-04-07T16:28:53.948Z,99465.69
2023-04-07T16:31:22.705Z,99462.31
2023-04-07T16:33:52.063Z,99457.19
2023-04-07T16:36:20.841Z,99468.22
2023-04-07T16:38:51.321Z,99471.50
2023-04-07T16:41:20.482Z,99472.31
2023-04-07T16:43:49.441Z,99484.09
2023-04-07T16:46:18.254Z,99471.34
2023-04-07T16:48:47.901Z,99480.59
2023-04-07T16:51:18.265Z,99488.97
2023-04-07T16:53:47.752Z,99482.97
2023-04-07T16:56:22.663Z,99498.91
2023-04-07T16:58:52.256Z,99495.44
2023-04-07T17:01:21.000Z,99507.25
2023-04-07T17:03:50.492Z,99502.22
2023-04-07T17:06:19.306Z,99510.69
2023-04-07T17:08:49.131Z,99512.38
2023-04-07T17:11:17.808Z,99511.56
2023-04-07T17:13:48.870Z,99514.94
2023-04-07T17:16:17.865Z,99525.84
2023-04-07T17:18:48.234Z,99526.72
2023-04-07T17:21:17.366Z,99534.38
2023-04-07T17:23:46.304Z,99532.69
2023-04-07T17:26:16.440Z,99541.13
2023-04-07T17:28:46.170Z,99541.13
2023-04-07T17:31:17.992Z,99541.13
2023-04-07T17:33:48.341Z,99553.75
2023-04-07T17:36:17.862Z,99552.84
2023-04-07T17:38:46.679Z,99558.69
2023-04-07T17:41:15.970Z,99551.13
2023-04-07T17:43:45.107Z,99558.69
2023-04-07T17:46:15.795Z,99557.00
2023-04-07T17:48:45.084Z,99562.84
2023-04-07T17:51:14.348Z,99569.59
2023-04-07T17:53:43.032Z,99568.69
2023-04-07T17:56:12.934Z,99575.50
2023-04-07T17:58:41.994Z,99561.91
2023-04-07T18:01:11.844Z,99578.00
2023-04-07T18:03:42.483Z,99581.28
2023-04-07T18:06:11.346Z,99580.34
2023-04-07T18:08:40.060Z,99575.16
2023-04-07T18:11:08.848Z,99577.72
2023-04-07T18:13:37.624Z,99587.75
2023-04-07T18:16:09.857Z,99583.53
2023-04-07T18:18:38.994Z,99591.13
2023-04-07T18:21:09.379Z,99589.38
2023-04-07T18:23:38.190Z,99594.44
2023-04-07T18:26:07.424Z,99595.34
2023-04-07T18:28:36.526Z,99596.19
2023-04-07T18:31:07.910Z,99599.59
2023-04-07T18:33:37.818Z,99590.19
2023-04-07T18:36:09.314Z,99597.84
2023-04-07T18:38:38.263Z,99599.53
2023-04-07T18:41:08.681Z,99595.28
2023-04-07T18:43:37.572Z,99600.28
2023-04-07T18:46:06.412Z,99607.75
2023-04-07T18:48:35.594Z,99597.47
2023-04-07T18:51:04.566Z,99601.66
2023-04-07T18:53:34.878Z,99603.28
2023-04-07T18:56:03.752Z,99599.09
2023-04-07T18:58:32.700Z,99607.47
2023-04-07T19:01:01.560Z,99603.22
2023-04-07T19:03:30.609Z,99600.75
2023-04-07T19:06:02.834Z,99613.47
2023-04-07T19:08:32.273Z,99600.75
2023-04-07T19:11:02.431Z,99608.28
2023-04-07T19:13:31.345Z,99605.81
2023-04-07T19:16:00.459Z,99607.50
2023-04-07T19:18:29.505Z,99605.69
2023-04-07T19:20:58.318Z,99610.66
2023-04-07T19:23:27.301Z,99608.91
2023-04-07T19:25:56.082Z,99608.91
2023-04-07T19:28:26.671Z,99607.28
2023-04-07T19:30:56.219Z,99605.53
2023-04-07T19:33:24.955Z,99615.63
2023-04-07T19:35:54.178Z,99615.63
2023-04-07T19:38:22.910Z,99612.22
2023-04-07T19:40:52.408Z,99617.19
2023-04-07T19:43:21.362Z,99607.75
2023-04-07T19:45:51.669Z,99622.16
2023-04-07T19:48:20.468Z,99615.38
2023-04-07T19:50:50.218Z,99624.59
2023-04-07T19:53:19.016Z,99610.09
2023-04-07T19:55:51.052Z,99624.59
2023-04-07T19:58:22.438Z,99622.09
2023-04-07T20:00:54.324Z,99622.97
2023-04-07T20:03:23.479Z,99627.16
2023-04-07T20:05:53.275Z,99625.50
2023-04-07T20:08:22.104Z,99625.47
2023-04-07T20:10:52.756Z,99633.88
2023-04-07T20:13:21.711Z,99629.63
2023-04-07T20:15:50.406Z,99631.41
2023-04-07T20:18:20.716Z,99628.81
2023-04-07T20:20:50.426Z,99637.22
2023-04-07T20:23:22.332Z,99630.47
2023-04-07T20:25:52.048Z,99637.22
2023-04-07T20:28:21.509Z,99633.88
2023-04-07T20:30:50.319Z,99638.13
2023-04-07T20:33:20.669Z,99632.16
2023-04-07T20:35:49.657Z,99637.19
2023-04-07T20:38:18.859Z,99633.72
2023-04-07T20:40:47.641Z,99634.50
2023-04-07T20:43:18.298Z,99631.97
2023-04-07T20:45:47.635Z,99640.53
2023-04-07T20:48:18.686Z,99635.38
2023-04-07T20:50:49.076Z,99637.78
2023-04-07T20:53:18.683Z,99642.00
2023-04-07T20:55:47.544Z,99637.88
2023-04-07T20:58:17.972Z,99639.44
2023-04-07T21:00:46.955Z,99638.59
2023-04-07T21:03:16.185Z,99637.81
2023-04-07T21:05:45.976Z,99638.78
2023-04-07T21:08:16.305Z,99644.06
2023-04-07T21:10:45.020Z,99640.59
2023-04-07T21:13:13.869Z,99641.31
2023-04-07T21:15:44.346Z,99642.13
2023-04-07T21:18:13.935Z,99639.63
2023-04-07T21:20:42.699Z,99637.09
2023-04-07T21:23:11.485Z,99635.38
2023-04-07T21:25:41.582Z,99639.59
2023-04-07T21:28:10.600Z,99633.75
2023-04-07T21:30:42.363Z,99637.13
2023-04-07T21:33:11.322Z,99635.47
2023-04-07T21:35:40.275Z,99638.16
2023-04-07T21:38:09.509Z,99645.00
2023-04-07T21:40:38.523Z,99643.34
2023-04-07T21:43:08.761Z,99640.88
2023-04-07T21:45:37.509Z,99641.75
2023-04-07T21:48:06.950Z,99641.81
2023-04-07T21:50:36.147Z,99632.41
2023-04-07T21:53:04.897Z,99639.25
2023-04-07T21:55:33.741Z,99631.53
2023-04-07T21:58:02.664Z,99646.03
2023-04-07T22:00:32.973Z,99650.22
2023-04-07T22:03:02.103Z,99648.47
2023-04-07T22:05:31.212Z,99644.06
2023-04-07T22:08:00.011Z,99650.81
2023-04-07T22:10:28.949Z,99647.56
2023-04-07T22:12:57.664Z,99650.16
2023-04-07T22:15:26.557Z,99645.97
2023-04-07T22:17:57.964Z,99645.16
2023-04-07T22:20:27.309Z,99649.25
2023-04-07T22:22:57.916Z,99646.72
2023-04-07T22:25:27.180Z,99647.63
2023-04-07T22:27:57.140Z,99651.03
2023-04-07T22:30:26.408Z,99646.75
2023-04-07T22:32:56.720Z,99647.63
2023-04-07T22:35:26.171Z,99640.00
2023-04-07T22:37:54.972Z,99654.47
2023-04-07T22:40:23.918Z,99654.47
2023-04-07T22:42:52.575Z,99653.56
2023-04-07T22:45:21.471Z,99652.75
2023-04-07T22:47:50.170Z,99656.16
2023-04-07T22:50:20.393Z,99658.78
2023-04-07T22:52:49.201Z,99656.09
2023-04-07T22:55:18.149Z,99665.38
2023-04-07T22:57:47.352Z,99667.81
2023-04-07T23:00:16.985Z,99665.19
2023-04-07T23:02:45.941Z,99662.81
2023-04-07T23:05:14.648Z,99662.00
2023-04-07T23:07:46.616Z,99637.88
2023-04-07T23:10:15.776Z,99672.84
2023-04-07T23:12:44.627Z,99666.84
2023-04-07T23:15:14.315Z,99670.72
2023-04-07T23:17:43.244Z,99674.03
2023-04-07T23:20:12.345Z,99677.31
2023-04-07T23:22:41.365Z,99676.31
2023-04-07T23:25:11.788Z,99678.88
2023-04-07T23:27:40.584Z,99677.25
2023-04-07T23:30:10.648Z,99675.47
2023-04-07T23:32:39.477Z,99678.88
2023-04-07T23:35:08.738Z,99680.53
2023-04-07T23:37:37.628Z,99678.81
2023-04-07T23:40:07.448Z,99685.53
2023-04-07T23:42:38.233Z,99682.91
2023-04-07T23:45:08.264Z,99682.13
2023-04-07T23:47:37.223Z,99687.16
2023-04-07T23:50:06.736Z,99682.97
2023-04-07T23:52:35.918Z,99674.50
2023-04-07T23:55:05.043Z,99684.53
2023-04-07T23:57:33.892Z,99681.91
